Private Wetterstation Nrnberg - Katzwang
Wetterdaten: Mai 2013
Datum Temp. A. Feuchte A. Luftdruck Regen Wind Richtung Taupunkt Windchill Windben
01.05.2013 13,1 C 75 % 1017 hPa 0,0 l/m 7,6 km/h N-NO 8,8 C 12,0 C 9,2 km/h
02.05.2013 13,0 C 79 % 1015 hPa 0,0 l/m 2,4 km/h W-NW 9,3 C 13,0 C 3,4 km/h
03.05.2013 13,9 C 78 % 1012 hPa 4,1 l/m 6,2 km/h N-NO 10,1 C 13,5 C 7,2 km/h
04.05.2013 13,4 C 77 % 1016 hPa 3,1 l/m 4,3 km/h W-NW 9,4 C 12,4 C 11,8 km/h
05.05.2013 14,8 C 67 % 1019 hPa 0,0 l/m 4,3 km/h NO 8,4 C 14,3 C 5,3 km/h
06.05.2013 16,4 C 71 % 1014 hPa 0,0 l/m 1,9 km/h N-NO 10,9 C 16,4 C 2,9 km/h
07.05.2013 17,3 C 75 % 1012 hPa 0,0 l/m 1,7 km/h W-NW 12,8 C 17,3 C 2,7 km/h
08.05.2013 18,9 C 60 % 1011 hPa 0,0 l/m 1,4 km/h W-NW 10,5 C 18,9 C 2,4 km/h
09.05.2013 18,4 C 70 % 1012 hPa 0,0 l/m 0,7 km/h W-NW 12,8 C 18,4 C 1,7 km/h
10.05.2013 14,4 C 74 % 1014 hPa 4,1 l/m 1,5 km/h W-NW 9,7 C 14,4 C 2,5 km/h
11.05.2013 13,7 C 70 % 1013 hPa 0,0 l/m 1,2 km/h W-NW 8,1 C 13,7 C 2,2 km/h
12.05.2013 8,9 C 78 % 1014 hPa 0,0 l/m 0,0 km/h W-NW 5,3 C 8,9 C 1,0 km/h
13.05.2013 10,3 C 79 % 1014 hPa 0,0 l/m 1,2 km/h W-NW 6,7 C 10,3 C 2,2 km/h
14.05.2013 13,6 C 69 % 1008 hPa 0,0 l/m 2,0 km/h O-NO 7,7 C 13,6 C 3,0 km/h
15.05.2013 17,4 C 67 % 1000 hPa 0,0 l/m 3,9 km/h NO 10,5 C 17,3 C 4,9 km/h
16.05.2013 17,4 C 62 % 994 hPa 0,0 l/m 4,9 km/h NO 9,7 C 16,7 C 8,4 km/h
17.05.2013 15,4 C 76 % 999 hPa 0,0 l/m 4,3 km/h W-NW 11,0 C 14,6 C 5,3 km/h
18.05.2013 15,6 C 67 % 1007 hPa 0,0 l/m 0,7 km/h W-NW 9,3 C 15,6 C 1,7 km/h
19.05.2013 15,6 C 69 % 1005 hPa 0,0 l/m 3,8 km/h W-NW 9,3 C 15,5 C 4,8 km/h
20.05.2013 13,0 C 65 % 1010 hPa 0,0 l/m 1,9 km/h W-NW 6,2 C 12,8 C 2,9 km/h
21.05.2013 14,4 C 64 % 1008 hPa 0,0 l/m 3,6 km/h W-NW 7,4 C 13,8 C 4,6 km/h
22.05.2013 9,7 C 79 % 1008 hPa 5,2 l/m 7,2 km/h W-NW 6,3 C 8,2 C 8,2 km/h
23.05.2013 9,3 C 73 % 1005 hPa 5,2 l/m 1,9 km/h W-NW 4,5 C 9,2 C 2,9 km/h
24.05.2013 7,8 C 75 % 1009 hPa 0,0 l/m 2,9 km/h W-NW 3,5 C 7,4 C 3,9 km/h
25.05.2013 9,4 C 72 % 1009 hPa 0,0 l/m 0,7 km/h N-NW 4,6 C 9,4 C 1,7 km/h
26.05.2013 7,3 C 82 % 1006 hPa 18,1 l/m 5,4 km/h W-NW 4,5 C 5,7 C 6,4 km/h
27.05.2013 9,9 C 83 % 1007 hPa 11,9 l/m 0,9 km/h W-NW 7,1 C 9,9 C 1,9 km/h
28.05.2013 15,3 C 65 % 1001 hPa 0,0 l/m 4,1 km/h NO 8,5 C 14,7 C 5,1 km/h
29.05.2013 10,9 C 81 % 1001 hPa 10,9 l/m 1,4 km/h W-NW 7,7 C 10,9 C 2,3 km/h
30.05.2013 11,0 C 77 % 1004 hPa 10,4 l/m 7,3 km/h W-NW 6,8 C 9,3 C 8,4 km/h
31.05.2013 12,8 C 85 % 999 hPa 35,2 l/m 0,0 km/h W-NW 10,2 C 12,8 C 1,0 km/h
Min-Datum 25.05.13 08.05.13 16.05.13 10 Tage 01.05.13 - 25.05.13 26.05.13 01.05.13
Min-Zeit 04:10 18:10 15:00 - 00:00 - 04:10 13:20 00:00
Minimum 3,7 C 38 % 993 hPa - 0,0 km/h - 0,7 C -4,9 C 1,0 km/h
Max-Datum 19.05.13 31.05.13 05.05.13 31.05.13 26.05.13 - 17.05.13 19.05.13 19.05.13
Max-Zeit 13:50 09:00 07:40 00:40 13:20 - 13:00 13:50 15:40
Maximum 28,1 C 86 % 1021 hPa 35,2 l/m 34,9 km/h
W-NW
- 14,9 C 28,1 C 68,0 km/h
W-NW
Durchschnitt 13,3 C 73 % 1009 hPa #108,3 l/m 2,9 km/h W-NW 8,3 C 12,9 C 4,2 km/h

Durchschnitt Minimum Temp.9,1 C
Durchschnitt Maximum Temp.18,1 C